X  Cerrar Datos meteorológicos de aviación METAR     EHKD De Kooy Airport
Temperatura
22°C Temperatura
18°C Punto de rocío
78% Humedad



Viento
23 KM/H
14 MPH
6 M/S
12 NUDO



30°
NNE
Condiciones actuales

Claro Claro
Presión 1014.9 (hPa) - 29.97 (inHg)
Visibilidad 6 (milla) - 9.7 (km)
Aeropuerto
Código de aeropuerto EHKD

localidad: De Kooy Airport
Distancia: 34 (km)

Metar:
EHKD 251725Z AUTO 03012KT 360V060 9999 NCD 22/18 Q1015 BLU NOSIG

Hora: 25-06-2024 19:25 CEST